createdAt,value
2019-01-11T00:01:44.136Z,100842.06
2019-01-11T00:04:13.329Z,100848.10
2019-01-11T00:06:42.437Z,100841.55
2019-01-11T00:09:11.642Z,100847.59
2019-01-11T00:11:40.749Z,100850.19
2019-01-11T00:14:09.810Z,100842.72
2019-01-11T00:16:38.907Z,100850.95
2019-01-11T00:19:08.147Z,100844.34
2019-01-11T00:21:37.385Z,100844.80
2019-01-11T00:24:06.911Z,100838.73
2019-01-11T00:26:36.046Z,100837.44
2019-01-11T00:29:05.218Z,100836.14
2019-01-11T00:31:34.396Z,100830.48
2019-01-11T00:34:03.472Z,100826.99
2019-01-11T00:36:32.569Z,100822.64
2019-01-11T00:39:01.656Z,100825.75
2019-01-11T00:41:30.740Z,100821.34
2019-01-11T00:43:59.796Z,100814.77
2019-01-11T00:46:28.850Z,100810.41
2019-01-11T00:48:57.956Z,100812.55
2019-01-11T00:51:27.118Z,100812.95
2019-01-11T00:53:56.268Z,100806.78
2019-01-11T00:56:25.323Z,100815.49
2019-01-11T00:58:54.395Z,100804.19
2019-01-11T01:01:23.538Z,100806.40
2019-01-11T01:03:52.619Z,100805.92
2019-01-11T01:06:21.738Z,100801.97
2019-01-11T01:08:50.815Z,100810.67
2019-01-11T01:11:19.966Z,100801.05
2019-01-11T01:13:49.108Z,100803.59
2019-01-11T01:16:18.173Z,100805.34
2019-01-11T01:18:47.343Z,100794.13
2019-01-11T01:21:16.487Z,100791.50
2019-01-11T01:23:45.608Z,100800.09
2019-01-11T01:26:14.654Z,100802.29
2019-01-11T01:28:43.775Z,100791.06
2019-01-11T01:31:15.686Z,100790.20
2019-01-11T01:33:44.782Z,100794.13
2019-01-11T01:36:13.832Z,100791.12
2019-01-11T01:38:42.877Z,100790.52
2019-01-11T01:41:11.920Z,100784.76
2019-01-11T01:43:40.956Z,100793.77
2019-01-11T01:46:09.952Z,100792.41
2019-01-11T01:48:38.979Z,100791.55
2019-01-11T01:51:08.020Z,100792.87
2019-01-11T01:53:37.054Z,100794.23
2019-01-11T01:56:06.059Z,100795.12
2019-01-11T01:58:35.136Z,100786.06
2019-01-11T02:01:04.153Z,100787.22
2019-01-11T02:03:33.170Z,100787.22
2019-01-11T02:06:02.179Z,100784.62
2019-01-11T02:08:31.256Z,100781.16
2019-01-11T02:11:00.276Z,100777.99
2019-01-11T02:13:29.332Z,100781.05
2019-01-11T02:15:58.364Z,100775.40
2019-01-11T02:18:27.416Z,100778.05
2019-01-11T02:20:56.529Z,100776.37
2019-01-11T02:23:25.576Z,100770.78
2019-01-11T02:25:54.608Z,100768.97
2019-01-11T02:28:23.593Z,100762.55
2019-01-11T02:30:52.961Z,100756.52
2019-01-11T02:33:25.014Z,100753.90
2019-01-11T02:35:52.778Z,100753.79
2019-01-11T02:38:21.773Z,100754.60
2019-01-11T02:40:50.786Z,100745.98
2019-01-11T02:43:19.746Z,100747.59
2019-01-11T02:45:48.794Z,100743.64
2019-01-11T02:48:17.808Z,100740.67
2019-01-11T02:50:47.171Z,100741.48
2019-01-11T02:53:16.302Z,100741.83
2019-01-11T02:55:45.394Z,100737.94
2019-01-11T02:58:14.455Z,100738.37
2019-01-11T03:00:43.530Z,100736.23
2019-01-11T03:03:12.556Z,100732.75
2019-01-11T03:05:41.649Z,100732.41
2019-01-11T03:08:10.636Z,100730.67
2019-01-11T03:10:39.719Z,100720.59
2019-01-11T03:13:08.828Z,100714.09
2019-01-11T03:15:37.904Z,100708.52
2019-01-11T03:18:06.888Z,100702.81
2019-01-11T03:20:35.923Z,100707.55
2019-01-11T03:23:04.991Z,100703.66
2019-01-11T03:25:34.114Z,100700.66
2019-01-11T03:28:03.041Z,100706.84
2019-01-11T03:30:32.139Z,100702.44
2019-01-11T03:33:01.153Z,100696.00
2019-01-11T03:35:30.210Z,100700.41
2019-01-11T03:37:59.314Z,100693.86
2019-01-11T03:40:28.366Z,100691.19
2019-01-11T03:42:57.423Z,100693.27
2019-01-11T03:45:26.489Z,100683.27
2019-01-11T03:47:55.567Z,100677.64
2019-01-11T03:50:24.834Z,100681.64
2019-01-11T03:52:53.775Z,100677.75
2019-01-11T03:55:22.803Z,100676.91
2019-01-11T03:57:51.930Z,100679.64
2019-01-11T04:00:22.799Z,100673.55
2019-01-11T04:02:51.859Z,100670.50
2019-01-11T04:05:23.667Z,100667.91
2019-01-11T04:07:52.657Z,100659.70
2019-01-11T04:10:23.255Z,100658.41
2019-01-11T04:12:52.251Z,100656.67
2019-01-11T04:15:22.067Z,100653.67
2019-01-11T04:18:09.103Z,100649.34
2019-01-11T04:20:38.276Z,100650.24
2019-01-11T04:23:07.271Z,100650.64
2019-01-11T04:25:41.861Z,100653.24
2019-01-11T04:28:10.966Z,100655.44
2019-01-11T04:30:40.077Z,100647.34
2019-01-11T04:33:09.182Z,100650.42
2019-01-11T04:35:38.230Z,100655.23
2019-01-11T04:38:07.331Z,100651.36
2019-01-11T04:40:36.327Z,100645.36
2019-01-11T04:43:05.467Z,100645.76
2019-01-11T04:45:34.527Z,100635.83
2019-01-11T04:48:03.656Z,100642.78
2019-01-11T04:50:32.719Z,100646.34
2019-01-11T04:53:01.871Z,100638.17
2019-01-11T04:55:30.975Z,100642.98
2019-01-11T04:58:00.084Z,100637.77
2019-01-11T05:00:29.232Z,100635.19
2019-01-11T05:02:58.383Z,100634.33
2019-01-11T05:05:27.474Z,100637.83
2019-01-11T05:07:56.598Z,100633.53
2019-01-11T05:10:25.677Z,100629.20
2019-01-11T05:12:54.872Z,100628.80
2019-01-11T05:15:23.949Z,100625.41
2019-01-11T05:17:53.048Z,100620.67
2019-01-11T05:20:22.154Z,100615.88
2019-01-11T05:22:51.336Z,100615.88
2019-01-11T05:25:20.411Z,100620.11
2019-01-11T05:27:49.803Z,100624.47
2019-01-11T05:30:19.662Z,100623.15
2019-01-11T05:32:48.735Z,100623.15
2019-01-11T05:35:17.779Z,100620.11
2019-01-11T05:37:46.905Z,100612.30
2019-01-11T05:40:19.694Z,100611.46
2019-01-11T05:42:48.807Z,100607.52
2019-01-11T05:45:18.157Z,100604.13
2019-01-11T05:47:47.408Z,100611.53
2019-01-11T05:50:23.946Z,100612.88
2019-01-11T05:52:48.968Z,100613.72
2019-01-11T05:55:31.846Z,100606.22
2019-01-11T05:58:19.896Z,100606.27
2019-01-11T06:00:48.981Z,100608.48
2019-01-11T06:03:18.118Z,100611.53
2019-01-11T06:05:47.248Z,100616.31
2019-01-11T06:08:17.217Z,100612.05
2019-01-11T06:10:46.286Z,100616.89
2019-01-11T06:13:15.412Z,100607.47
2019-01-11T06:15:44.624Z,100606.06
2019-01-11T06:18:14.058Z,100609.51
2019-01-11T06:20:43.104Z,100613.36
2019-01-11T06:23:12.200Z,100611.59
2019-01-11T06:25:41.318Z,100616.84
2019-01-11T06:28:10.406Z,100616.56
2019-01-11T06:30:39.489Z,100615.66
2019-01-11T06:33:08.628Z,100616.51
2019-01-11T06:35:37.706Z,100614.82
2019-01-11T06:38:06.755Z,100613.06
2019-01-11T06:40:35.827Z,100610.47
2019-01-11T06:43:04.959Z,100617.88
2019-01-11T06:45:34.007Z,100619.16
2019-01-11T06:48:03.106Z,100624.88
2019-01-11T06:50:36.467Z,100621.88
2019-01-11T06:53:03.164Z,100623.63
2019-01-11T06:55:32.213Z,100621.48
2019-01-11T06:58:01.251Z,100619.75
2019-01-11T07:00:30.432Z,100616.29
2019-01-11T07:02:59.505Z,100622.78
2019-01-11T07:05:28.763Z,100619.73
2019-01-11T07:07:57.927Z,100624.08
2019-01-11T07:10:27.034Z,100626.17
2019-01-11T07:12:56.146Z,100623.17
2019-01-11T07:15:26.881Z,100621.05
2019-01-11T07:17:56.324Z,100619.80
2019-01-11T07:20:26.795Z,100618.55
2019-01-11T07:22:55.875Z,100625.95
2019-01-11T07:25:25.019Z,100625.16
2019-01-11T07:27:57.336Z,100624.72
2019-01-11T07:30:33.338Z,100623.47
2019-01-11T07:33:03.944Z,100630.42
2019-01-11T07:35:47.581Z,100631.34
2019-01-11T07:38:34.273Z,100635.73
2019-01-11T07:41:03.779Z,100634.48
2019-01-11T07:43:34.227Z,100631.91
2019-01-11T07:46:03.722Z,100635.06
2019-01-11T07:48:33.181Z,100626.87
2019-01-11T07:51:02.415Z,100625.00
2019-01-11T07:53:33.162Z,100624.56
2019-01-11T07:56:02.339Z,100619.25
2019-01-11T07:58:31.501Z,100615.45
2019-01-11T08:01:00.600Z,100622.86
2019-01-11T08:03:33.177Z,100632.02
2019-01-11T08:06:02.346Z,100625.58
2019-01-11T08:08:34.769Z,100620.37
2019-01-11T08:11:03.897Z,100616.09
2019-01-11T08:13:32.981Z,100617.44
2019-01-11T08:16:08.533Z,100621.34
2019-01-11T08:18:48.693Z,100621.85
2019-01-11T08:21:18.392Z,100615.41
2019-01-11T08:23:48.613Z,100618.45
2019-01-11T08:26:18.397Z,100620.27
2019-01-11T08:28:47.781Z,100622.92
2019-01-11T08:31:17.840Z,100619.07
2019-01-11T08:33:47.984Z,100610.83
2019-01-11T08:36:18.237Z,100617.03
2019-01-11T08:38:47.745Z,100617.09
2019-01-11T08:41:17.183Z,100614.54
2019-01-11T08:43:46.572Z,100609.00
2019-01-11T08:46:16.834Z,100608.16
2019-01-11T08:49:04.542Z,100622.95
2019-01-11T08:51:37.813Z,100612.56
2019-01-11T08:54:06.528Z,100622.66
2019-01-11T08:56:35.697Z,100623.98
2019-01-11T08:59:05.426Z,100627.97
2019-01-11T09:01:38.589Z,100623.75
2019-01-11T09:04:08.003Z,100624.61
2019-01-11T09:06:37.193Z,100618.21
2019-01-11T09:09:08.776Z,100613.91
2019-01-11T09:11:38.541Z,100621.41
2019-01-11T09:14:10.660Z,100608.91
2019-01-11T09:16:39.755Z,100607.27
2019-01-11T09:19:09.965Z,100613.86
2019-01-11T09:21:41.709Z,100626.94
2019-01-11T09:24:09.814Z,100622.67
2019-01-11T09:26:38.999Z,100623.98
2019-01-11T09:29:09.197Z,100622.22
2019-01-11T09:31:40.649Z,100628.32
2019-01-11T09:34:09.912Z,100626.57
2019-01-11T09:36:39.100Z,100625.72
2019-01-11T09:39:09.597Z,100631.42
2019-01-11T09:41:38.649Z,100637.94
2019-01-11T09:44:07.799Z,100631.43
2019-01-11T09:46:36.968Z,100631.88
2019-01-11T09:49:06.355Z,100631.03
2019-01-11T09:51:35.539Z,100631.97
2019-01-11T09:54:04.754Z,100635.43
2019-01-11T09:56:33.861Z,100631.17
2019-01-11T09:59:02.975Z,100629.87
2019-01-11T10:01:32.020Z,100638.58
2019-01-11T10:04:01.182Z,100638.22
2019-01-11T10:06:31.959Z,100637.33
2019-01-11T10:09:01.126Z,100635.98
2019-01-11T10:11:30.369Z,100636.92
2019-01-11T10:13:59.467Z,100639.08
2019-01-11T10:16:28.558Z,100635.22
2019-01-11T10:18:57.710Z,100624.77
2019-01-11T10:21:26.845Z,100626.60
2019-01-11T10:23:55.998Z,100549.09
2019-01-11T10:26:25.256Z,100632.36
2019-01-11T10:28:54.454Z,100627.25
2019-01-11T10:31:23.802Z,100622.94
2019-01-11T10:33:53.099Z,100618.31
2019-01-11T10:36:22.192Z,100622.66
2019-01-11T10:38:51.516Z,100624.06
2019-01-11T10:41:20.614Z,100619.75
2019-01-11T10:43:51.017Z,100618.09
2019-01-11T10:46:49.598Z,100623.84
2019-01-11T10:49:20.069Z,100616.19
2019-01-11T13:38:55.494Z,100474.77
2019-01-11T13:41:25.612Z,100474.33
2019-01-11T13:43:55.244Z,100473.08
2019-01-11T13:46:25.204Z,100471.83
2019-01-11T13:48:54.423Z,100471.02
2019-01-11T13:51:25.005Z,100469.77
2019-01-11T13:53:55.671Z,100474.16
2019-01-11T13:56:24.965Z,100465.48
2019-01-11T13:58:54.356Z,100464.23
2019-01-11T14:01:23.740Z,100463.36
2019-01-11T14:03:54.139Z,100459.03
2019-01-11T14:06:23.369Z,100410.00
2019-01-11T14:08:52.604Z,100460.80
2019-01-11T14:11:21.733Z,100455.14
2019-01-11T14:13:51.673Z,100456.91
2019-01-11T14:16:20.950Z,100452.98
2019-01-11T14:18:50.316Z,100456.08
2019-01-11T14:21:20.781Z,100456.52
2019-01-11T14:23:50.296Z,100459.57
2019-01-11T14:26:21.908Z,100456.09
2019-01-11T14:28:51.140Z,100457.39
2019-01-11T14:31:20.239Z,100453.08
2019-01-11T14:33:49.352Z,100454.43
2019-01-11T14:36:18.543Z,100454.04
2019-01-11T14:38:47.634Z,100449.70
2019-01-11T14:41:17.342Z,100449.72
2019-01-11T14:43:46.768Z,100449.76
2019-01-11T14:46:15.902Z,100455.89
2019-01-11T14:48:44.945Z,100448.06
2019-01-11T14:51:14.142Z,100452.01
2019-01-11T14:53:43.171Z,100448.11
2019-01-11T14:56:12.216Z,100457.31
2019-01-11T14:58:41.256Z,100463.44
2019-01-11T15:01:10.431Z,100466.05
2019-01-11T15:03:39.465Z,100469.56
2019-01-11T15:06:08.642Z,100470.02
2019-01-11T15:08:37.717Z,100470.91
2019-01-11T15:11:06.721Z,100467.89
2019-01-11T15:13:35.971Z,100469.20
2019-01-11T15:16:05.019Z,100471.81
2019-01-11T15:18:34.415Z,100470.95
2019-01-11T15:21:03.524Z,100470.95
2019-01-11T15:23:32.579Z,100475.78
2019-01-11T15:26:01.664Z,100473.60
2019-01-11T15:28:30.806Z,100471.41
2019-01-11T15:30:59.798Z,100466.20
2019-01-11T15:33:28.769Z,100471.86
2019-01-11T15:35:57.776Z,100466.64
2019-01-11T15:38:27.188Z,100461.85
2019-01-11T15:40:56.311Z,100467.10
2019-01-11T15:43:26.212Z,100461.01
2019-01-11T15:46:02.746Z,100466.67
2019-01-11T15:48:46.336Z,100465.36
2019-01-11T15:51:17.219Z,100460.59
2019-01-11T15:53:47.163Z,100461.91
2019-01-11T15:56:26.587Z,100457.98
2019-01-11T15:58:55.617Z,100450.13
2019-01-11T16:01:24.916Z,100451.44
2019-01-11T16:03:53.954Z,100458.84
2019-01-11T16:06:33.474Z,100454.93
2019-01-11T16:10:16.192Z,100455.41
2019-01-11T16:13:32.356Z,100454.09
2019-01-11T16:16:24.043Z,100451.03
2019-01-11T16:18:54.532Z,100457.11
2019-01-11T16:21:23.708Z,100448.84
2019-01-11T16:23:52.779Z,100453.59
2019-01-11T16:26:21.801Z,100446.64
2019-01-11T16:28:50.895Z,100441.85
2019-01-11T16:31:20.011Z,100436.63
2019-01-11T16:33:49.055Z,100454.05
2019-01-11T16:36:18.703Z,100458.87
2019-01-11T16:38:47.770Z,100455.36
2019-01-11T16:41:16.845Z,100463.23
2019-01-11T16:43:45.946Z,100459.34
2019-01-11T16:46:15.782Z,100470.22
2019-01-11T16:48:44.798Z,100474.13
2019-01-11T16:51:13.867Z,100467.61
2019-01-11T16:53:42.963Z,100469.77
2019-01-11T16:56:12.120Z,100467.18
2019-01-11T16:58:41.634Z,100468.91
2019-01-11T17:01:10.828Z,100476.75
2019-01-11T17:03:40.030Z,100479.80
2019-01-11T17:06:09.175Z,100473.28
2019-01-11T17:08:39.053Z,100475.03
2019-01-11T17:11:08.111Z,100478.10
2019-01-11T17:13:40.575Z,100469.36
2019-01-11T17:16:07.908Z,100479.82
2019-01-11T17:18:36.958Z,100485.49
2019-01-11T17:21:05.944Z,100475.03
2019-01-11T17:23:34.987Z,100471.55
2019-01-11T17:26:07.469Z,100479.39
2019-01-11T17:28:36.610Z,100483.34
2019-01-11T17:31:05.835Z,100480.28
2019-01-11T17:33:34.919Z,100485.06
2019-01-11T17:36:04.117Z,100487.66
2019-01-11T17:38:33.238Z,100489.82
2019-01-11T17:41:02.696Z,100487.17
2019-01-11T17:43:31.736Z,100495.47
2019-01-11T17:46:00.759Z,100490.67
2019-01-11T17:48:29.779Z,100494.59
2019-01-11T17:50:58.785Z,100494.58
2019-01-11T17:53:27.899Z,100496.33
2019-01-11T17:55:57.044Z,100504.62
2019-01-11T17:58:26.274Z,100505.94
2019-01-11T18:00:55.356Z,100506.34
2019-01-11T18:03:25.326Z,100511.16
2019-01-11T18:05:54.535Z,100509.43
2019-01-11T18:08:25.251Z,100509.00
2019-01-11T18:10:54.340Z,100510.75
2019-01-11T18:13:24.300Z,100517.70
2019-01-11T18:15:53.446Z,100513.81
2019-01-11T18:18:22.853Z,100513.38
2019-01-11T18:20:52.243Z,100511.20
2019-01-11T18:23:21.404Z,100516.44
2019-01-11T18:25:50.654Z,100522.53
2019-01-11T18:28:19.712Z,100516.05
2019-01-11T18:30:48.790Z,100519.52
2019-01-11T18:33:17.903Z,100514.73
2019-01-11T18:35:46.961Z,100519.08
2019-01-11T18:38:16.127Z,100524.76
2019-01-11T18:40:45.295Z,100521.68
2019-01-11T18:43:14.370Z,100524.73
2019-01-11T18:45:44.394Z,100536.45
2019-01-11T18:48:13.536Z,100534.72
2019-01-11T18:50:42.667Z,100538.19
2019-01-11T18:53:13.979Z,100536.87
2019-01-11T18:55:42.794Z,100536.88
2019-01-11T18:58:11.924Z,100528.09
2019-01-11T19:00:41.025Z,100533.34
2019-01-11T19:03:10.135Z,100536.85
2019-01-11T19:05:39.323Z,100532.48
2019-01-11T19:08:08.572Z,100534.28
2019-01-11T19:10:38.805Z,100533.84
2019-01-11T19:13:07.918Z,100533.00
2019-01-11T19:15:37.115Z,100533.90
2019-01-11T19:18:06.322Z,100529.98
2019-01-11T19:20:37.105Z,100546.52
2019-01-11T19:23:06.609Z,100543.02
2019-01-11T19:25:35.729Z,100539.53
2019-01-11T19:28:04.796Z,100537.83
2019-01-11T19:30:33.885Z,100542.19
2019-01-11T19:33:02.950Z,100541.78
2019-01-11T19:35:32.343Z,100540.05
2019-01-11T19:38:03.111Z,100539.17
2019-01-11T19:40:32.177Z,100538.73
2019-01-11T20:15:28.911Z,100550.93
2019-01-11T20:17:59.278Z,100550.52
2019-01-11T20:20:29.011Z,100544.86
2019-01-11T20:23:02.338Z,100554.89
2019-01-11T20:25:30.122Z,100551.41
2019-01-11T20:28:01.324Z,100550.13
2019-01-11T20:34:13.153Z,100544.87
2019-01-11T20:36:49.377Z,100552.69
2019-01-11T20:39:19.916Z,100552.69
2019-01-11T20:41:53.609Z,100553.12
2019-01-11T20:44:25.660Z,100550.43
2019-01-11T20:46:55.767Z,100553.96
2019-01-11T20:49:25.299Z,100568.31
2019-01-11T20:51:54.782Z,100547.81
2019-01-11T20:54:24.454Z,100556.11
2019-01-11T20:56:53.865Z,100553.47
2019-01-11T20:59:23.099Z,100566.55
2019-01-11T21:01:55.432Z,100557.42
2019-01-11T21:04:25.054Z,100560.50
2019-01-11T21:06:54.544Z,100555.22
2019-01-11T21:09:24.105Z,100556.98
2019-01-11T21:11:53.927Z,100560.06
2019-01-11T21:14:23.615Z,100559.58
2019-01-11T21:16:53.092Z,100563.05
2019-01-11T21:19:22.835Z,100570.89
2019-01-11T21:21:52.436Z,100567.86
2019-01-11T21:24:25.142Z,100572.22
2019-01-11T21:26:54.729Z,100572.66
2019-01-11T21:29:24.416Z,100576.59
2019-01-11T21:31:54.248Z,100578.34
2019-01-11T21:34:23.984Z,100573.55
2019-01-11T21:36:54.400Z,100573.97
2019-01-11T21:39:24.091Z,100576.60
2019-01-11T21:41:53.867Z,100580.55
2019-01-11T21:44:23.524Z,100581.42
2019-01-11T21:46:53.071Z,100577.49
2019-01-11T21:49:22.657Z,100575.75
2019-01-11T21:51:52.214Z,100578.80
2019-01-11T21:54:22.007Z,100571.84
2019-01-11T21:56:51.454Z,100579.69
2019-01-11T21:59:21.238Z,100573.59
2019-01-11T22:01:50.927Z,100576.20
2019-01-11T22:04:21.466Z,100573.59
2019-01-11T22:06:53.024Z,100576.17
2019-01-11T22:09:22.455Z,100574.43
2019-01-11T22:11:52.082Z,100580.98
2019-01-11T22:14:21.544Z,100582.30
2019-01-11T22:16:51.141Z,100585.78
2019-01-11T22:19:20.758Z,100579.66
2019-01-11T22:21:50.349Z,100580.11
2019-01-11T22:24:19.789Z,100572.67
2019-01-11T22:26:49.155Z,100582.23
2019-01-11T22:29:18.561Z,100578.78
2019-01-11T22:31:48.093Z,100577.90
2019-01-11T22:34:17.629Z,100579.20
2019-01-11T22:36:46.995Z,100580.48
2019-01-11T22:39:17.457Z,100581.82
2019-01-11T22:41:46.971Z,100585.29
2019-01-11T22:44:16.577Z,100580.48
2019-01-11T22:46:46.160Z,100577.00
2019-01-11T22:49:15.567Z,100571.33
2019-01-11T22:51:47.872Z,100569.57
2019-01-11T22:54:21.876Z,100564.34
2019-01-11T22:56:52.476Z,100565.63
2019-01-11T22:59:23.389Z,100567.38
2019-01-11T23:02:13.591Z,100561.28
2019-01-11T23:04:46.970Z,100563.02
2019-01-11T23:07:48.678Z,100569.96
2019-01-11T23:10:45.946Z,100571.68
2019-01-11T23:13:18.438Z,100569.04
2019-01-11T23:15:52.266Z,100572.52
2019-01-11T23:18:26.415Z,100569.88
2019-01-11T23:21:08.933Z,100572.92
2019-01-11T23:23:43.275Z,100570.75
2019-01-11T23:26:13.810Z,100564.22
2019-01-11T23:28:44.794Z,100569.02
2019-01-11T23:31:16.101Z,100570.34
2019-01-11T23:33:53.484Z,100569.91
2019-01-11T23:36:27.281Z,100572.52
